Harrison, Pennsylvania
Current Conditions -  °F | °C
As of 5:26 AM on Sunday 21 Dec 2014 (Local Time) from KELZ Reporting Station
Overcast Overcast  
Wind Chill: 24°   Ceiling: 900
Heat Index: 24°   Visibility: 10mi
Dew Point: 21°   Wind: 3mph
Humidity: 88%   Direction: 250°WSW
Pressure: 30.2"   Gusts: NA
Location:  41.9546°N, 77.7018°W
Report Text: KELZ 211026Z AUTO 25003KT 10SM OVC009 M04/M06 A3020 RMK AO2 CIG 006V012 T10441061
Loading
Personal Weather Stations






























Interactive Weather Map New forecast layout! Learn more

10-Day Weather Forecast

Advertisements
Track Severe Weather on mobile